Ahsahka, ID (83520)

1:54 AM PDT on August 28, 2015 (GMT -0700)
APRSWXNET | | Change Station
CLOSE
Current Station
Personal Weather Station
Location: Ahsahka, ID
Elevation: 1046 ft
Nearby Weather Stations

Elev 1046 ft 46.48 °N, 116.27 °W | Updated 19 minutes ago

Partly Cloudy
Partly Cloudy
62 °F
Feels Like 62 °F
N
0
Wind Variable Wind from SSW
Gusts 0.0 mph

Today
High -- | Low -- °F
--% Chance of Precip.
Yesterday
High -- | Low -- °F
Precip. -- in
5:59 AM 7:31 PM
Waxing Gibbous, 97% visible
Pressure 29.92 in
Visibility 10.0 miles
Clouds Clear
Dew Point 47 °F
Humidity 57%
Rainfall in
Snow Depth Not available.
UV 0 out of 12
Pollen 7.60 out of 12
Air Quality Not available.
Flu Activity Not available.
METAR KLWS 280756Z AUTO 15005KT 10SM CLR 21/04 A2995 RMK AO2 SLP132 T02060039 403440172
Pressure 29.92 in
Visibility 10.0 miles
Clouds Clear
Dew Point 47 °F
Humidity 57%
Rainfall in
Snow Depth Not available.
UV 0 out of 12
Pollen 7.60 out of 12
Air Quality Not available.
Flu Activity Not available.
METAR KLWS 280756Z AUTO 15005KT 10SM CLR 21/04 A2995 RMK AO2 SLP132 T02060039 403440172

10-Day Weather Forecast

×

Almanac

Astronomy

Aug. 28, 2015 Rise Set
Actual Time
Civil Twilight
Nautical Twilight
Astronomical Twilight
Moon
Length of Visible Light
Length of Day
Tomorrow will be .
, % of the Moon is Illuminated

Today's Extremes

State Highs State Lows

Community

WunderPhotos

Upload Photos

1,850,348 photos uploaded!

WunderBlogs® & News

Nearby

Air Quality

  Air Quality AQ Index Pollutant
Not available.

Snow Depth

Station Depth Elevation

Earthquake Activity

City Distance Mag. Time & Date
Minimum magnitude displayed is 2.5.

Coastal Water Temperatures

Place Temperature

Stations

Nearby Weather Stations

Station Location Temp. Windchill Dew Point Humidity Wind Precip. Elev Updated Type